Time,TemperatureF,DewpointF,PressureIn,WindDirection,WindDirectionDegrees,WindSpeedMPH,WindSpeedGustMPH,Humidity,HourlyPrecipIn,Conditions,Clouds,dailyrainin,SoftwareType,DateUTC
2013-07-31 00:00:00,66.4,57.1,30.04,North,0,0.0,0.0,72,0.00,,,-99.99,VWS V12.06,2013-07-31 04:00:00,
2013-07-31 00:15:00,66.3,57.4,30.03,North,0,0.0,0.0,73,0.00,,,-99.99,VWS V12.06,2013-07-31 04:15:00,
2013-07-31 00:30:00,65.8,56.9,30.03,North,0,0.0,0.0,73,0.00,,,-99.99,VWS V12.06,2013-07-31 04:30:00,
2013-07-31 00:45:00,65.5,57.0,30.03,North,0,0.0,0.0,74,0.00,,,-99.99,VWS V12.06,2013-07-31 04:45:00,
2013-07-31 01:00:00,65.2,56.7,30.02,North,0,0.0,0.0,74,0.00,,,-99.99,VWS V12.06,2013-07-31 05:00:00,
2013-07-31 01:15:00,65.2,56.7,30.02,North,0,0.0,0.0,74,0.00,,,-99.99,VWS V12.06,2013-07-31 05:15:00,
2013-07-31 01:30:00,65.0,56.5,30.02,North,0,0.0,0.0,74,0.00,,,-99.99,VWS V12.06,2013-07-31 05:30:00,
2013-07-31 01:45:00,64.5,56.8,30.02,North,0,0.0,0.0,76,0.00,,,-99.99,VWS V12.06,2013-07-31 05:45:00,
2013-07-31 02:00:00,64.0,56.3,30.02,North,0,0.0,0.0,76,0.00,,,-99.99,VWS V12.06,2013-07-31 06:00:00,
2013-07-31 02:15:00,63.4,56.4,30.02,North,0,0.0,0.0,78,0.00,,,-99.99,VWS V12.06,2013-07-31 06:15:00,
2013-07-31 02:30:00,63.2,56.2,30.02,North,0,0.0,0.0,78,0.00,,,-99.99,VWS V12.06,2013-07-31 06:30:00,
2013-07-31 02:45:00,63.1,56.1,30.02,North,0,0.0,0.0,78,0.00,,,-99.99,VWS V12.06,2013-07-31 06:45:00,
2013-07-31 03:00:00,63.1,56.1,30.02,North,0,0.0,1.0,78,0.00,,,-99.99,VWS V12.06,2013-07-31 07:00:00,
2013-07-31 03:15:00,63.1,56.1,30.02,North,0,0.0,0.0,78,0.00,,,-99.99,VWS V12.06,2013-07-31 07:15:00,
2013-07-31 03:30:00,62.4,56.2,30.03,North,0,0.0,0.0,80,0.00,,,-99.99,VWS V12.06,2013-07-31 07:30:00,
2013-07-31 03:45:00,62.1,55.9,30.03,North,0,0.0,0.0,80,0.00,,,-99.99,VWS V12.06,2013-07-31 07:45:00,
2013-07-31 04:00:00,62.0,56.5,30.03,North,0,0.0,0.0,82,0.00,,,-99.99,VWS V12.06,2013-07-31 08:00:00,
2013-07-31 04:15:00,61.6,56.4,30.03,North,0,0.0,0.0,83,0.00,,,-99.99,VWS V12.06,2013-07-31 08:15:00,
2013-07-31 04:30:00,61.3,56.1,30.04,North,0,0.0,0.0,83,0.00,,,-99.99,VWS V12.06,2013-07-31 08:30:00,
2013-07-31 04:45:00,61.0,56.1,30.04,North,0,0.0,0.0,84,0.00,,,-99.99,VWS V12.06,2013-07-31 08:45:00,
2013-07-31 05:00:00,60.9,56.0,30.04,North,0,0.0,0.0,84,0.00,,,-99.99,VWS V12.06,2013-07-31 09:00:00,
2013-07-31 05:15:00,60.7,56.2,30.04,North,0,0.0,0.0,85,0.00,,,-99.99,VWS V12.06,2013-07-31 09:15:00,
2013-07-31 05:30:00,60.5,56.0,30.05,North,0,0.0,0.0,85,0.00,,,-99.99,VWS V12.06,2013-07-31 09:30:00,
2013-07-31 05:45:00,60.4,56.2,30.05,North,0,0.0,0.0,86,0.00,,,-99.99,VWS V12.06,2013-07-31 09:45:00,
2013-07-31 06:00:00,60.2,56.0,30.06,North,0,0.0,0.0,86,0.00,,,-99.99,VWS V12.06,2013-07-31 10:00:00,
2013-07-31 06:15:00,60.2,56.3,30.06,North,0,0.0,0.0,87,0.00,,,-99.99,VWS V12.06,2013-07-31 10:15:00,
2013-07-31 06:30:00,60.7,56.8,30.07,North,0,0.0,0.0,87,0.00,,,-99.99,VWS V12.06,2013-07-31 10:30:00,
2013-07-31 06:45:00,62.0,57.5,30.07,North,0,0.0,0.0,85,0.00,,,-99.99,VWS V12.06,2013-07-31 10:45:00,
2013-07-31 07:00:00,63.4,57.5,30.07,North,0,0.0,1.0,81,0.00,,,-99.99,VWS V12.06,2013-07-31 11:00:00,
2013-07-31 07:15:00,64.7,58.0,30.07,NNW,346,0.0,2.0,79,0.00,,,-99.99,VWS V12.06,2013-07-31 11:15:00,
2013-07-31 07:30:00,65.5,58.5,30.08,NNW,343,0.0,1.0,78,0.00,,,-99.99,VWS V12.06,2013-07-31 11:30:00,
2013-07-31 07:45:00,66.3,58.5,30.08,NNW,339,1.0,7.0,76,0.00,,,-99.99,VWS V12.06,2013-07-31 11:45:00,
2013-07-31 08:00:00,66.9,58.3,30.08,NNW,336,0.0,4.0,74,0.00,,,-99.99,VWS V12.06,2013-07-31 12:00:00,
2013-07-31 08:15:00,67.6,57.9,30.08,NNW,336,0.0,3.0,71,0.00,,,-99.99,VWS V12.06,2013-07-31 12:15:00,
2013-07-31 08:30:00,68.1,57.6,30.08,NNW,337,0.0,1.0,69,0.00,,,-99.99,VWS V12.06,2013-07-31 12:30:00,
2013-07-31 08:45:00,68.9,57.9,30.08,NNW,337,0.0,0.0,68,0.00,,,-99.99,VWS V12.06,2013-07-31 12:45:00,
2013-07-31 09:00:00,69.9,58.0,30.08,WNW,294,0.0,3.0,66,0.00,,,-99.99,VWS V12.06,2013-07-31 13:00:00,
2013-07-31 09:15:00,71.5,57.4,30.08,NNW,330,0.0,0.0,61,0.00,,,-99.99,VWS V12.06,2013-07-31 13:15:00,
2013-07-31 09:30:00,72.5,56.9,30.08,NE,51,0.0,1.0,58,0.00,,,-99.99,VWS V12.06,2013-07-31 13:30:00,
2013-07-31 09:45:00,72.8,55.2,30.08,NNW,330,2.0,5.0,54,0.00,,,-99.99,VWS V12.06,2013-07-31 13:45:00,
2013-07-31 10:00:00,73.5,55.3,30.08,NW,312,0.0,5.0,53,0.00,,,-99.99,VWS V12.06,2013-07-31 14:00:00,
2013-07-31 10:15:00,73.7,56.5,30.07,East,95,0.0,5.0,55,0.00,,,-99.99,VWS V12.06,2013-07-31 14:15:00,
2013-07-31 10:30:00,74.2,56.0,30.07,ENE,76,2.0,5.0,53,0.00,,,-99.99,VWS V12.06,2013-07-31 14:30:00,
2013-07-31 10:45:00,74.2,54.9,30.07,NE,35,2.0,2.0,51,0.00,,,-99.99,VWS V12.06,2013-07-31 14:45:00,
2013-07-31 11:00:00,74.6,55.8,30.06,NNW,333,1.0,2.0,52,0.00,,,-99.99,VWS V12.06,2013-07-31 15:00:00,
2013-07-31 11:15:00,74.9,55.0,30.06,WNW,298,0.0,1.0,50,0.00,,,-99.99,VWS V12.06,2013-07-31 15:15:00,
2013-07-31 11:30:00,75.4,54.9,30.06,WNW,298,0.0,0.0,49,0.00,,,-99.99,VWS V12.06,2013-07-31 15:30:00,
2013-07-31 11:45:00,76.7,57.2,30.06,WNW,298,0.0,1.0,51,0.00,,,-99.99,VWS V12.06,2013-07-31 15:45:00,
2013-07-31 12:00:00,76.1,53.8,30.05,North,356,0.0,5.0,46,0.00,,,-99.99,VWS V12.06,2013-07-31 16:00:00,
2013-07-31 12:15:00,75.4,54.9,30.05,NNE,25,0.0,3.0,49,0.00,,,-99.99,VWS V12.06,2013-07-31 16:15:00,
2013-07-31 12:30:00,76.7,55.5,30.04,NNW,347,0.0,1.0,48,0.00,,,-99.99,VWS V12.06,2013-07-31 16:30:00,
2013-07-31 12:45:00,77.6,55.2,30.04,East,90,0.0,3.0,46,0.00,,,-99.99,VWS V12.06,2013-07-31 16:45:00,
2013-07-31 13:00:00,77.9,55.5,30.04,North,11,0.0,0.0,46,0.00,,,-99.99,VWS V12.06,2013-07-31 17:00:00,
2013-07-31 13:15:00,78.6,54.3,30.03,NW,308,0.0,2.0,43,0.00,,,-99.99,VWS V12.06,2013-07-31 17:15:00,
2013-07-31 13:30:00,77.6,55.8,30.03,NW,308,0.0,1.0,47,0.00,,,-99.99,VWS V12.06,2013-07-31 17:30:00,
2013-07-31 13:45:00,79.0,56.5,30.03,NW,308,0.0,0.0,46,0.00,,,-99.99,VWS V12.06,2013-07-31 17:45:00,
2013-07-31 14:00:00,79.6,57.0,30.03,NW,308,0.0,1.0,46,0.00,,,-99.99,VWS V12.06,2013-07-31 18:00:00,
2013-07-31 14:15:00,79.6,57.0,30.02,NW,316,0.0,0.0,46,0.00,,,-99.99,VWS V12.06,2013-07-31 18:15:00,
2013-07-31 14:30:00,79.6,55.2,30.02,West,277,0.0,2.0,43,0.00,,,-99.99,VWS V12.06,2013-07-31 18:30:00,
2013-07-31 14:45:00,79.4,56.2,30.02,West,265,0.0,0.0,45,0.00,,,-99.99,VWS V12.06,2013-07-31 18:45:00,
2013-07-31 15:00:00,79.4,55.6,30.02,WSW,243,0.0,0.0,44,0.00,,,-99.99,VWS V12.06,2013-07-31 19:00:00,
2013-07-31 15:15:00,79.9,56.1,30.02,NW,311,1.0,1.0,44,0.00,,,-99.99,VWS V12.06,2013-07-31 19:15:00,
2013-07-31 15:30:00,80.3,57.7,30.02,North,349,0.0,1.0,46,0.00,,,-99.99,VWS V12.06,2013-07-31 19:30:00,
2013-07-31 15:45:00,79.8,54.0,30.02,NW,326,0.0,3.0,41,0.00,,,-99.99,VWS V12.06,2013-07-31 19:45:00,
2013-07-31 16:00:00,79.6,54.5,30.01,NNW,328,0.0,1.0,42,0.00,,,-99.99,VWS V12.06,2013-07-31 20:00:00,
2013-07-31 16:15:00,79.2,57.2,30.00,NNW,328,0.0,1.0,47,0.00,,,-99.99,VWS V12.06,2013-07-31 20:15:00,
2013-07-31 16:30:00,78.1,57.4,30.01,NNW,328,0.0,0.0,49,0.00,,,-99.99,VWS V12.06,2013-07-31 20:30:00,
2013-07-31 16:45:00,78.3,54.6,30.00,NNW,336,0.0,3.0,44,0.00,,,-99.99,VWS V12.06,2013-07-31 20:45:00,
2013-07-31 17:00:00,78.5,57.2,30.01,NNW,343,0.0,0.0,48,0.00,,,-99.99,VWS V12.06,2013-07-31 21:00:00,
2013-07-31 17:15:00,78.1,55.7,30.00,North,350,0.0,0.0,46,0.00,,,-99.99,VWS V12.06,2013-07-31 21:15:00,
2013-07-31 17:30:00,77.7,55.3,30.00,North,0,0.0,2.0,46,0.00,,,-99.99,VWS V12.06,2013-07-31 21:30:00,
2013-07-31 17:45:00,77.6,55.8,30.00,North,0,0.0,0.0,47,0.00,,,-99.99,VWS V12.06,2013-07-31 21:45:00,
2013-07-31 18:00:00,77.2,56.6,30.00,North,0,0.0,0.0,49,0.00,,,-99.99,VWS V12.06,2013-07-31 22:00:00,
2013-07-31 18:15:00,76.8,56.8,30.00,North,0,0.0,0.0,50,0.00,,,-99.99,VWS V12.06,2013-07-31 22:15:00,
2013-07-31 18:30:00,76.3,58.5,30.00,North,0,0.0,0.0,54,0.00,,,-99.99,VWS V12.06,2013-07-31 22:30:00,
2013-07-31 18:45:00,76.0,57.7,30.00,North,0,0.0,0.0,53,0.00,,,-99.99,VWS V12.06,2013-07-31 22:45:00,
2013-07-31 19:00:00,75.8,60.0,29.99,North,0,0.0,0.0,58,0.00,,,-99.99,VWS V12.06,2013-07-31 23:00:00,
2013-07-31 19:15:00,75.1,59.3,29.99,North,0,0.0,0.0,58,0.00,,,-99.99,VWS V12.06,2013-07-31 23:15:00,
2013-07-31 19:30:00,73.7,60.3,29.99,North,0,0.0,0.0,63,0.00,,,-99.99,VWS V12.06,2013-07-31 23:30:00,
2013-07-31 19:45:00,72.5,60.9,29.99,North,0,0.0,0.0,67,0.00,,,-99.99,VWS V12.06,2013-07-31 23:45:00,
2013-07-31 20:00:00,71.5,60.8,29.98,North,0,0.0,0.0,69,0.00,,,-99.99,VWS V12.06,2013-08-01 00:00:00,
2013-07-31 20:15:00,70.6,60.3,29.99,North,0,0.0,0.0,70,0.00,,,-99.99,VWS V12.06,2013-08-01 00:15:00,
2013-07-31 20:30:00,69.8,60.4,29.98,North,0,0.0,0.0,72,0.00,,,-99.99,VWS V12.06,2013-08-01 00:30:00,
2013-07-31 20:45:00,69.1,60.1,29.98,North,0,0.0,0.0,73,0.00,,,-99.99,VWS V12.06,2013-08-01 00:45:00,
2013-07-31 21:00:00,68.4,59.0,29.99,North,0,0.0,0.0,72,0.01,,,-99.99,VWS V12.06,2013-08-01 01:00:00,
2013-07-31 21:15:00,67.8,58.5,29.99,North,0,0.0,0.0,72,0.01,,,-99.99,VWS V12.06,2013-08-01 01:15:00,
2013-07-31 21:30:00,67.4,58.1,29.99,North,0,0.0,0.0,72,0.01,,,-99.99,VWS V12.06,2013-08-01 01:30:00,
2013-07-31 21:45:00,67.1,58.2,29.99,North,0,0.0,0.0,73,0.01,,,-99.99,VWS V12.06,2013-08-01 01:45:00,
2013-07-31 22:00:00,66.8,58.3,29.99,North,0,0.0,0.0,74,0.01,,,-99.99,VWS V12.06,2013-08-01 02:00:00,
2013-07-31 22:15:00,66.4,58.6,29.99,North,0,0.0,0.0,76,0.00,,,-99.99,VWS V12.06,2013-08-01 02:15:00,
2013-07-31 22:30:00,66.6,59.5,29.99,North,0,0.0,0.0,78,0.00,,,-99.99,VWS V12.06,2013-08-01 02:30:00,
2013-07-31 22:45:00,66.8,60.1,29.99,North,0,0.0,0.0,79,0.00,,,-99.99,VWS V12.06,2013-08-01 02:45:00,
2013-07-31 23:00:00,66.8,60.4,29.99,North,0,0.0,0.0,80,0.00,,,-99.99,VWS V12.06,2013-08-01 03:00:00,
2013-07-31 23:15:00,66.4,60.7,29.99,North,0,0.0,0.0,82,0.00,,,-99.99,VWS V12.06,2013-08-01 03:15:00,
2013-07-31 23:30:00,66.1,60.5,29.99,North,0,0.0,0.0,82,0.00,,,-99.99,VWS V12.06,2013-08-01 03:30:00,
2013-07-31 23:45:00,65.8,60.2,29.99,North,0,0.0,0.0,82,0.00,,,-99.99,VWS V12.06,2013-08-01 03:45:00,